EGSSEGTE

Guest
Details From EGSS - London Stansted
To EGTE - Exeter
Flight Number -
Tags Generated
Created
Modified
Stats Distance 153 nm / 283 km
Max Altitude 0 ft / 0 m
Waypoints 2
Social Downloads 1
Likes 0
Share VATSIM

Download

Looking for another format? Having issues loading an existing format? Contact us
Advertisement - Login to hide

Notes

Generated

Route

EGSS EGTE

ID Type Via Altitude Latitude Longitude Leg Dist Tot Dist Heading (true) Name
O EGSS APT - 0 ft / 0 m 51.87508˚ 0.21993˚ - 0 nm - -
O EGTE APT - 0 ft / 0 m 50.73851˚ -3.42704˚ 152 nm 152 nm 245° / 242° -

Altitude Profile

Advertisement - Login to hide

EGSS

Details ICAO EGSS (STN)
Name London Stansted
Region United Kingdom
Timezone Europe/London (UTC+1.0)
Stats Elevation 348 ft / 106 m (AMSL)
Location 51.885097° 0.234962°
Runways 1
Magnetic Variation 0.298° W

METAR

EGSS 231520Z AUTO 36011KT 9999 NCD 18/11 Q1022

Decode

TAF

TAF EGSS 231104Z 2312/2418 02012KT 9999 FEW030 TEMPO 2312/2319 03015G25KT PROB30 TEMPO 2316/2409 6000 SHRA

Decode

Departure Runways

ID Width Length Bearing (true) Bearing (mag) Surface Threshold Offset Overrun Length
04 151 ft / 46 m 10,011 ft / 3,052 m 42.79° 43.09° Asphalt 994 ft / 303 m 0 ft / 0 m
22 151 ft / 46 m 10,011 ft / 3,052 m 222.81° 223.11° Asphalt 0 ft / 0 m 0 ft / 0 m

EGTE

Details ICAO EGTE (EXT)
Name Exeter
Region United Kingdom
Timezone Europe/London (UTC+1.0)
Stats Elevation 102 ft / 31 m (AMSL)
Location 50.734260° -3.414000°
Runways 1
Magnetic Variation 1.448° W

METAR

EGTE 231520Z 04007KT 330V070 9999 FEW049 22/10 Q1021

Decode

TAF

Not found

Destination Runways

ID Width Length Bearing (true) Bearing (mag) Surface Threshold Offset Overrun Length
08 151 ft / 46 m 6,666 ft / 2,032 m 76.09° 77.54° Asphalt 0 ft / 0 m 0 ft / 0 m
26 151 ft / 46 m 6,666 ft / 2,032 m 256.11° 257.56° Asphalt 0 ft / 0 m 0 ft / 0 m

Approach Navaids

Runway Type Ident Frequency Range Bearing (true) Bearing (mag) Slope Elevation
08 Localiser IET 109.90 MHz 18 nm / 33 km 76.11° 77.56° - 102 ft / 31 m (AMSL)
08 Glidescope IET 109.90 MHz 10 nm / 19 km 76.10° 77.55° 3.00° 50 ft / 15 m (AMSL)
08 DME IET 109.90 MHz 18 nm / 33 km - - - 102 ft / 31 m (AMSL)
26 Localiser IXR 109.90 MHz 18 nm / 33 km 256.10° 257.55° - 102 ft / 31 m (AMSL)
26 Glidescope IXR 109.90 MHz 10 nm / 19 km 256.10° 257.55° 3.50° 58 ft / 18 m (AMSL)
26 DME IXR 109.90 MHz 18 nm / 33 km - - - 102 ft / 31 m (AMSL)

Popular Alternatives